sensor_id;sensor_type;location;lat;lon;timestamp;temperature;humidity
23149;DHT22;11743;51.228;22.498;2023-03-14T00:03:28;6.60;99.90
23149;DHT22;11743;51.228;22.498;2023-03-14T00:06:05;6.50;99.90
23149;DHT22;11743;51.228;22.498;2023-03-14T00:07:35;6.50;99.90
23149;DHT22;11743;51.228;22.498;2023-03-14T00:10:14;6.40;99.90
23149;DHT22;11743;51.228;22.498;2023-03-14T00:11:11;6.40;99.90
23149;DHT22;11743;51.228;22.498;2023-03-14T00:13:24;6.40;99.90
23149;DHT22;11743;51.228;22.498;2023-03-14T00:13:50;6.30;99.90
23149;DHT22;11743;51.228;22.498;2023-03-14T00:21:04;6.30;99.90
23149;DHT22;11743;51.228;22.498;2023-03-14T00:34:30;6.30;99.90
23149;DHT22;11743;51.228;22.498;2023-03-14T00:51:07;6.00;99.90
23149;DHT22;11743;51.228;22.498;2023-03-14T00:55:39;6.10;99.90
23149;DHT22;11743;51.228;22.498;2023-03-14T00:56:07;6.00;99.90
23149;DHT22;11743;51.228;22.498;2023-03-14T00:59:55;6.10;99.90
23149;DHT22;11743;51.228;22.498;2023-03-14T01:10:39;6.10;99.90
23149;DHT22;11743;51.228;22.498;2023-03-14T01:16:07;6.30;99.90
23149;DHT22;11743;51.228;22.498;2023-03-14T01:16:32;6.10;99.90
23149;DHT22;11743;51.228;22.498;2023-03-14T01:21:10;6.40;99.90
23149;DHT22;11743;51.228;22.498;2023-03-14T01:23:50;6.30;99.90
23149;DHT22;11743;51.228;22.498;2023-03-14T01:26:27;6.40;99.90
23149;DHT22;11743;51.228;22.498;2023-03-14T01:43:12;6.40;99.90
23149;DHT22;11743;51.228;22.498;2023-03-14T01:48:44;6.50;99.90
23149;DHT22;11743;51.228;22.498;2023-03-14T01:53:56;6.50;99.90
23149;DHT22;11743;51.228;22.498;2023-03-14T01:54:43;6.50;99.90
23149;DHT22;11743;51.228;22.498;2023-03-14T01:56:22;6.60;99.90
23149;DHT22;11743;51.228;22.498;2023-03-14T01:57:43;6.50;99.90
23149;DHT22;11743;51.228;22.498;2023-03-14T02:01:46;6.50;99.90
23149;DHT22;11743;51.228;22.498;2023-03-14T02:02:34;6.50;99.90
23149;DHT22;11743;51.228;22.498;2023-03-14T02:03:22;6.60;99.90
23149;DHT22;11743;51.228;22.498;2023-03-14T02:04:35;6.60;99.90
23149;DHT22;11743;51.228;22.498;2023-03-14T02:04:58;6.60;99.90
23149;DHT22;11743;51.228;22.498;2023-03-14T02:05:23;6.50;99.90
23149;DHT22;11743;51.228;22.498;2023-03-14T02:08:22;6.60;99.90
23149;DHT22;11743;51.228;22.498;2023-03-14T02:09:56;6.60;99.90
23149;DHT22;11743;51.228;22.498;2023-03-14T02:10:45;6.50;99.90
23149;DHT22;11743;51.228;22.498;2023-03-14T02:13:03;6.50;99.90
23149;DHT22;11743;51.228;22.498;2023-03-14T02:13:47;6.50;99.90
23149;DHT22;11743;51.228;22.498;2023-03-14T02:17:58;6.50;99.90
23149;DHT22;11743;51.228;22.498;2023-03-14T02:23:51;6.50;99.90
23149;DHT22;11743;51.228;22.498;2023-03-14T02:25:08;6.50;99.90
23149;DHT22;11743;51.228;22.498;2023-03-14T02:26:40;6.50;99.90
23149;DHT22;11743;51.228;22.498;2023-03-14T02:32:15;6.50;99.90
23149;DHT22;11743;51.228;22.498;2023-03-14T02:33:05;6.50;99.90
23149;DHT22;11743;51.228;22.498;2023-03-14T02:33:50;6.40;99.90
23149;DHT22;11743;51.228;22.498;2023-03-14T02:34:36;6.50;99.90
23149;DHT22;11743;51.228;22.498;2023-03-14T02:39:10;6.40;99.90
23149;DHT22;11743;51.228;22.498;2023-03-14T02:39:43;6.40;99.90
23149;DHT22;11743;51.228;22.498;2023-03-14T02:46:13;6.30;99.90
23149;DHT22;11743;51.228;22.498;2023-03-14T02:47:22;6.40;99.90
23149;DHT22;11743;51.228;22.498;2023-03-14T02:47:56;6.30;99.90
23149;DHT22;11743;51.228;22.498;2023-03-14T02:49:14;6.40;99.90
23149;DHT22;11743;51.228;22.498;2023-03-14T02:50:26;6.40;99.90
23149;DHT22;11743;51.228;22.498;2023-03-14T02:50:50;6.40;99.90
23149;DHT22;11743;51.228;22.498;2023-03-14T02:53:32;6.60;99.90
23149;DHT22;11743;51.228;22.498;2023-03-14T03:08:27;7.00;99.90
23149;DHT22;11743;51.228;22.498;2023-03-14T03:31:09;7.20;99.90
23149;DHT22;11743;51.228;22.498;2023-03-14T03:35:48;7.20;99.90
23149;DHT22;11743;51.228;22.498;2023-03-14T03:51:15;6.60;99.90
23149;DHT22;11743;51.228;22.498;2023-03-14T04:18:23;6.40;99.90
23149;DHT22;11743;51.228;22.498;2023-03-14T04:31:14;6.30;99.90
23149;DHT22;11743;51.228;22.498;2023-03-14T04:40:10;6.30;99.90
23149;DHT22;11743;51.228;22.498;2023-03-14T04:43:10;6.30;99.90
23149;DHT22;11743;51.228;22.498;2023-03-14T04:48:22;6.30;99.90
23149;DHT22;11743;51.228;22.498;2023-03-14T04:53:14;6.30;99.90
23149;DHT22;11743;51.228;22.498;2023-03-14T05:10:56;6.60;99.90
23149;DHT22;11743;51.228;22.498;2023-03-14T06:01:29;8.40;99.90
23149;DHT22;11743;51.228;22.498;2023-03-14T06:51:06;9.20;99.90
23149;DHT22;11743;51.228;22.498;2023-03-14T06:51:28;9.20;99.90
23149;DHT22;11743;51.228;22.498;2023-03-14T06:51:50;9.20;99.90
23149;DHT22;11743;51.228;22.498;2023-03-14T06:52:12;9.20;99.90
23149;DHT22;11743;51.228;22.498;2023-03-14T06:52:34;9.20;99.90
23149;DHT22;11743;51.228;22.498;2023-03-14T06:52:56;9.20;99.90
23149;DHT22;11743;51.228;22.498;2023-03-14T06:53:18;9.20;99.90
23149;DHT22;11743;51.228;22.498;2023-03-14T06:53:40;9.20;99.90
23149;DHT22;11743;51.228;22.498;2023-03-14T06:54:01;9.20;99.90
23149;DHT22;11743;51.228;22.498;2023-03-14T06:54:23;9.30;99.90
23149;DHT22;11743;51.228;22.498;2023-03-14T06:54:45;9.20;99.90
23149;DHT22;11743;51.228;22.498;2023-03-14T06:55:07;9.30;99.90
23149;DHT22;11743;51.228;22.498;2023-03-14T06:55:29;9.30;99.90
23149;DHT22;11743;51.228;22.498;2023-03-14T06:55:51;9.30;99.90
23149;DHT22;11743;51.228;22.498;2023-03-14T06:56:13;9.30;99.90
23149;DHT22;11743;51.228;22.498;2023-03-14T06:56:35;9.40;99.90
23149;DHT22;11743;51.228;22.498;2023-03-14T06:56:57;9.30;99.90
23149;DHT22;11743;51.228;22.498;2023-03-14T06:57:18;9.40;99.90
23149;DHT22;11743;51.228;22.498;2023-03-14T06:57:40;9.30;99.90
23149;DHT22;11743;51.228;22.498;2023-03-14T06:58:02;9.30;99.90
23149;DHT22;11743;51.228;22.498;2023-03-14T06:58:24;9.40;99.90
23149;DHT22;11743;51.228;22.498;2023-03-14T06:58:45;9.40;99.90
23149;DHT22;11743;51.228;22.498;2023-03-14T06:59:10;9.40;99.90
23149;DHT22;11743;51.228;22.498;2023-03-14T06:59:32;9.40;99.90
23149;DHT22;11743;51.228;22.498;2023-03-14T06:59:54;9.40;99.90
23149;DHT22;11743;51.228;22.498;2023-03-14T07:00:16;9.40;99.90
23149;DHT22;11743;51.228;22.498;2023-03-14T07:00:38;8.30;99.90
23149;DHT22;11743;51.228;22.498;2023-03-14T07:01:00;9.40;99.90
23149;DHT22;11743;51.228;22.498;2023-03-14T07:01:27;9.50;99.90
23149;DHT22;11743;51.228;22.498;2023-03-14T07:01:49;9.50;99.90
23149;DHT22;11743;51.228;22.498;2023-03-14T07:02:12;9.60;99.90
23149;DHT22;11743;51.228;22.498;2023-03-14T07:02:34;9.50;99.90
23149;DHT22;11743;51.228;22.498;2023-03-14T07:03:03;9.60;99.90
23149;DHT22;11743;51.228;22.498;2023-03-14T07:03:25;9.50;99.90
23149;DHT22;11743;51.228;22.498;2023-03-14T07:03:47;9.60;99.90
23149;DHT22;11743;51.228;22.498;2023-03-14T07:04:09;9.50;99.90
23149;DHT22;11743;51.228;22.498;2023-03-14T07:04:31;9.50;99.90
23149;DHT22;11743;51.228;22.498;2023-03-14T07:04:53;9.60;99.90
23149;DHT22;11743;51.228;22.498;2023-03-14T07:05:14;9.60;99.90
23149;DHT22;11743;51.228;22.498;2023-03-14T07:05:36;9.60;99.90
23149;DHT22;11743;51.228;22.498;2023-03-14T07:06:00;9.60;99.90
23149;DHT22;11743;51.228;22.498;2023-03-14T07:06:22;9.60;99.90
23149;DHT22;11743;51.228;22.498;2023-03-14T07:06:44;9.60;99.90
23149;DHT22;11743;51.228;22.498;2023-03-14T07:07:07;9.60;99.90
23149;DHT22;11743;51.228;22.498;2023-03-14T07:07:29;9.60;99.90
23149;DHT22;11743;51.228;22.498;2023-03-14T07:07:51;9.60;99.90
23149;DHT22;11743;51.228;22.498;2023-03-14T07:08:13;9.60;99.90
23149;DHT22;11743;51.228;22.498;2023-03-14T07:08:34;9.60;99.90
23149;DHT22;11743;51.228;22.498;2023-03-14T07:08:57;9.60;99.90
23149;DHT22;11743;51.228;22.498;2023-03-14T07:09:18;9.60;99.90
23149;DHT22;11743;51.228;22.498;2023-03-14T07:09:40;9.60;99.90
23149;DHT22;11743;51.228;22.498;2023-03-14T07:10:02;9.70;99.90
23149;DHT22;11743;51.228;22.498;2023-03-14T07:10:24;9.70;99.90
23149;DHT22;11743;51.228;22.498;2023-03-14T07:10:46;9.70;99.90
23149;DHT22;11743;51.228;22.498;2023-03-14T07:11:08;9.70;99.90
23149;DHT22;11743;51.228;22.498;2023-03-14T07:11:31;9.70;99.90
23149;DHT22;11743;51.228;22.498;2023-03-14T07:11:53;9.70;99.90
23149;DHT22;11743;51.228;22.498;2023-03-14T07:12:14;9.80;99.90
23149;DHT22;11743;51.228;22.498;2023-03-14T07:12:36;9.70;99.90
23149;DHT22;11743;51.228;22.498;2023-03-14T07:12:58;9.80;99.90
23149;DHT22;11743;51.228;22.498;2023-03-14T07:13:20;9.80;99.90
23149;DHT22;11743;51.228;22.498;2023-03-14T07:13:41;9.80;99.90
23149;DHT22;11743;51.228;22.498;2023-03-14T07:14:03;9.80;99.90
23149;DHT22;11743;51.228;22.498;2023-03-14T07:14:25;9.90;99.90
23149;DHT22;11743;51.228;22.498;2023-03-14T07:14:47;9.90;99.90
23149;DHT22;11743;51.228;22.498;2023-03-14T07:15:09;9.90;99.90
23149;DHT22;11743;51.228;22.498;2023-03-14T07:15:39;9.90;99.90
23149;DHT22;11743;51.228;22.498;2023-03-14T07:16:01;10.00;99.90
23149;DHT22;11743;51.228;22.498;2023-03-14T07:16:23;10.00;99.90
23149;DHT22;11743;51.228;22.498;2023-03-14T07:16:45;10.00;99.90
23149;DHT22;11743;51.228;22.498;2023-03-14T07:17:07;10.00;99.90
23149;DHT22;11743;51.228;22.498;2023-03-14T07:17:28;10.00;99.90
23149;DHT22;11743;51.228;22.498;2023-03-14T07:17:50;10.10;99.90
23149;DHT22;11743;51.228;22.498;2023-03-14T07:18:12;10.10;99.90
23149;DHT22;11743;51.228;22.498;2023-03-14T07:18:34;10.10;99.90
23149;DHT22;11743;51.228;22.498;2023-03-14T07:18:56;10.10;99.90
23149;DHT22;11743;51.228;22.498;2023-03-14T07:19:17;10.10;99.90
23149;DHT22;11743;51.228;22.498;2023-03-14T07:19:39;10.10;99.90
23149;DHT22;11743;51.228;22.498;2023-03-14T07:20:01;10.20;99.90
23149;DHT22;11743;51.228;22.498;2023-03-14T07:20:26;10.20;99.90
23149;DHT22;11743;51.228;22.498;2023-03-14T07:20:47;10.20;99.90
23149;DHT22;11743;51.228;22.498;2023-03-14T07:21:12;10.20;99.90
23149;DHT22;11743;51.228;22.498;2023-03-14T07:21:33;10.30;99.80
23149;DHT22;11743;51.228;22.498;2023-03-14T07:21:56;10.30;99.70
23149;DHT22;11743;51.228;22.498;2023-03-14T07:22:18;10.30;99.40
23149;DHT22;11743;51.228;22.498;2023-03-14T07:22:40;10.30;99.60
23149;DHT22;11743;51.228;22.498;2023-03-14T07:23:02;10.30;99.80
23149;DHT22;11743;51.228;22.498;2023-03-14T07:23:24;8.40;99.30
23149;DHT22;11743;51.228;22.498;2023-03-14T07:23:46;10.40;99.90
23149;DHT22;11743;51.228;22.498;2023-03-14T07:24:08;10.40;99.90
23149;DHT22;11743;51.228;22.498;2023-03-14T07:24:30;12.50;99.90
23149;DHT22;11743;51.228;22.498;2023-03-14T07:24:52;10.50;99.90
23149;DHT22;11743;51.228;22.498;2023-03-14T07:25:13;10.50;99.90
23149;DHT22;11743;51.228;22.498;2023-03-14T07:25:35;10.50;99.90
23149;DHT22;11743;51.228;22.498;2023-03-14T07:25:57;10.60;99.80
23149;DHT22;11743;51.228;22.498;2023-03-14T07:26:19;10.60;99.60
23149;DHT22;11743;51.228;22.498;2023-03-14T07:26:40;10.60;99.60
23149;DHT22;11743;51.228;22.498;2023-03-14T07:27:02;10.60;99.80
23149;DHT22;11743;51.228;22.498;2023-03-14T07:27:24;10.70;99.30
23149;DHT22;11743;51.228;22.498;2023-03-14T07:27:46;10.70;99.90
23149;DHT22;11743;51.228;22.498;2023-03-14T07:28:09;10.70;99.50
23149;DHT22;11743;51.228;22.498;2023-03-14T07:28:31;10.70;99.60
23149;DHT22;11743;51.228;22.498;2023-03-14T07:28:52;10.80;99.60
23149;DHT22;11743;51.228;22.498;2023-03-14T07:29:14;10.80;99.80
23149;DHT22;11743;51.228;22.498;2023-03-14T07:29:36;10.90;99.30
23149;DHT22;11743;51.228;22.498;2023-03-14T07:29:58;10.90;99.00
23149;DHT22;11743;51.228;22.498;2023-03-14T07:30:19;10.90;98.80
23149;DHT22;11743;51.228;22.498;2023-03-14T07:30:41;11.00;99.10
23149;DHT22;11743;51.228;22.498;2023-03-14T07:31:03;11.00;99.40
23149;DHT22;11743;51.228;22.498;2023-03-14T07:31:25;11.00;98.70
23149;DHT22;11743;51.228;22.498;2023-03-14T07:31:47;11.00;98.70
23149;DHT22;11743;51.228;22.498;2023-03-14T07:32:09;11.10;98.80
23149;DHT22;11743;51.228;22.498;2023-03-14T07:32:31;11.10;98.70
23149;DHT22;11743;51.228;22.498;2023-03-14T07:32:52;11.10;98.70
23149;DHT22;11743;51.228;22.498;2023-03-14T07:33:15;11.20;98.50
23149;DHT22;11743;51.228;22.498;2023-03-14T07:33:37;11.20;98.80
23149;DHT22;11743;51.228;22.498;2023-03-14T07:33:59;9.70;98.20
23149;DHT22;11743;51.228;22.498;2023-03-14T07:34:20;11.20;98.60
23149;DHT22;11743;51.228;22.498;2023-03-14T07:34:44;11.30;98.40
23149;DHT22;11743;51.228;22.498;2023-03-14T07:35:06;11.30;98.40
23149;DHT22;11743;51.228;22.498;2023-03-14T07:35:28;11.30;98.60
23149;DHT22;11743;51.228;22.498;2023-03-14T07:35:50;11.30;98.40
23149;DHT22;11743;51.228;22.498;2023-03-14T07:36:12;11.40;98.40
23149;DHT22;11743;51.228;22.498;2023-03-14T07:36:34;11.30;98.00
23149;DHT22;11743;51.228;22.498;2023-03-14T07:36:55;11.30;98.00
23149;DHT22;11743;51.228;22.498;2023-03-14T07:37:19;11.30;97.90
23149;DHT22;11743;51.228;22.498;2023-03-14T07:37:41;11.30;98.30
23149;DHT22;11743;51.228;22.498;2023-03-14T07:38:06;11.30;98.10
23149;DHT22;11743;51.228;22.498;2023-03-14T07:38:27;11.40;98.20
23149;DHT22;11743;51.228;22.498;2023-03-14T07:38:52;11.40;98.30
23149;DHT22;11743;51.228;22.498;2023-03-14T07:39:14;11.40;98.40
23149;DHT22;11743;51.228;22.498;2023-03-14T07:39:35;11.40;98.10
23149;DHT22;11743;51.228;22.498;2023-03-14T07:39:57;11.40;98.30
23149;DHT22;11743;51.228;22.498;2023-03-14T07:40:19;11.50;98.30
23149;DHT22;11743;51.228;22.498;2023-03-14T07:40:41;11.50;98.20
23149;DHT22;11743;51.228;22.498;2023-03-14T07:41:05;11.60;98.10
23149;DHT22;11743;51.228;22.498;2023-03-14T07:41:27;11.60;97.60
23149;DHT22;11743;51.228;22.498;2023-03-14T07:41:48;11.60;97.80
23149;DHT22;11743;51.228;22.498;2023-03-14T07:42:10;11.70;97.70
23149;DHT22;11743;51.228;22.498;2023-03-14T07:42:32;11.70;97.60
23149;DHT22;11743;51.228;22.498;2023-03-14T07:42:54;11.70;97.70
23149;DHT22;11743;51.228;22.498;2023-03-14T07:43:16;11.80;97.90
23149;DHT22;11743;51.228;22.498;2023-03-14T07:43:38;11.80;97.40
23149;DHT22;11743;51.228;22.498;2023-03-14T07:44:00;11.90;97.10
23149;DHT22;11743;51.228;22.498;2023-03-14T07:44:21;11.90;97.00
23149;DHT22;11743;51.228;22.498;2023-03-14T07:44:43;12.00;96.80
23149;DHT22;11743;51.228;22.498;2023-03-14T07:45:05;12.10;96.90
23149;DHT22;11743;51.228;22.498;2023-03-14T07:45:28;12.10;97.00
23149;DHT22;11743;51.228;22.498;2023-03-14T07:45:50;12.20;97.00
23149;DHT22;11743;51.228;22.498;2023-03-14T07:46:19;12.30;96.90
23149;DHT22;11743;51.228;22.498;2023-03-14T07:46:41;12.40;96.60
23149;DHT22;11743;51.228;22.498;2023-03-14T07:47:03;12.50;96.50
23149;DHT22;11743;51.228;22.498;2023-03-14T07:47:27;12.60;97.40
23149;DHT22;11743;51.228;22.498;2023-03-14T07:47:48;12.70;96.20
23149;DHT22;11743;51.228;22.498;2023-03-14T07:48:10;12.90;95.90
23149;DHT22;11743;51.228;22.498;2023-03-14T07:48:32;13.00;95.60
23149;DHT22;11743;51.228;22.498;2023-03-14T07:48:54;13.10;95.90
23149;DHT22;11743;51.228;22.498;2023-03-14T07:49:16;13.20;94.80
23149;DHT22;11743;51.228;22.498;2023-03-14T07:49:38;13.30;94.60
23149;DHT22;11743;51.228;22.498;2023-03-14T07:50:00;13.40;94.50
23149;DHT22;11743;51.228;22.498;2023-03-14T07:50:22;13.50;94.50
23149;DHT22;11743;51.228;22.498;2023-03-14T07:50:44;13.60;94.20
23149;DHT22;11743;51.228;22.498;2023-03-14T07:51:05;13.70;93.80
23149;DHT22;11743;51.228;22.498;2023-03-14T07:51:27;13.70;93.70
23149;DHT22;11743;51.228;22.498;2023-03-14T07:51:49;13.80;93.20
23149;DHT22;11743;51.228;22.498;2023-03-14T07:52:11;13.80;92.90
23149;DHT22;11743;51.228;22.498;2023-03-14T07:52:33;13.90;93.00
23149;DHT22;11743;51.228;22.498;2023-03-14T07:52:55;14.00;92.60
23149;DHT22;11743;51.228;22.498;2023-03-14T07:53:17;14.20;92.70
23149;DHT22;11743;51.228;22.498;2023-03-14T07:53:39;14.40;92.50
23149;DHT22;11743;51.228;22.498;2023-03-14T07:54:00;14.50;92.10
23149;DHT22;11743;51.228;22.498;2023-03-14T07:54:22;14.70;91.60
23149;DHT22;11743;51.228;22.498;2023-03-14T07:54:45;14.90;91.10
23149;DHT22;11743;51.228;22.498;2023-03-14T07:55:07;15.00;90.50
23149;DHT22;11743;51.228;22.498;2023-03-14T07:55:29;15.10;90.20
23149;DHT22;11743;51.228;22.498;2023-03-14T07:55:52;15.20;89.70
23149;DHT22;11743;51.228;22.498;2023-03-14T07:56:14;15.40;89.10
23149;DHT22;11743;51.228;22.498;2023-03-14T07:56:36;15.60;88.50
23149;DHT22;11743;51.228;22.498;2023-03-14T07:56:57;15.80;88.30
23149;DHT22;11743;51.228;22.498;2023-03-14T07:57:22;16.10;88.10
23149;DHT22;11743;51.228;22.498;2023-03-14T07:57:43;16.40;86.70
23149;DHT22;11743;51.228;22.498;2023-03-14T07:58:05;16.60;86.40
23149;DHT22;11743;51.228;22.498;2023-03-14T07:58:27;16.80;84.00
23149;DHT22;11743;51.228;22.498;2023-03-14T07:58:49;17.10;84.00
23149;DHT22;11743;51.228;22.498;2023-03-14T07:59:11;17.30;83.20
23149;DHT22;11743;51.228;22.498;2023-03-14T07:59:33;17.60;80.70
23149;DHT22;11743;51.228;22.498;2023-03-14T07:59:55;17.80;79.60
23149;DHT22;11743;51.228;22.498;2023-03-14T08:00:17;18.00;78.60
23149;DHT22;11743;51.228;22.498;2023-03-14T08:00:39;18.20;77.00
23149;DHT22;11743;51.228;22.498;2023-03-14T08:01:01;18.50;76.70
23149;DHT22;11743;51.228;22.498;2023-03-14T08:01:23;18.80;75.70
23149;DHT22;11743;51.228;22.498;2023-03-14T08:01:45;19.10;74.50
23149;DHT22;11743;51.228;22.498;2023-03-14T08:02:10;19.30;72.60
23149;DHT22;11743;51.228;22.498;2023-03-14T08:02:33;19.50;71.10
23149;DHT22;11743;51.228;22.498;2023-03-14T08:02:55;19.70;69.80
23149;DHT22;11743;51.228;22.498;2023-03-14T08:03:17;19.80;68.80
23149;DHT22;11743;51.228;22.498;2023-03-14T08:03:39;20.10;68.50
23149;DHT22;11743;51.228;22.498;2023-03-14T08:04:01;20.40;67.90
23149;DHT22;11743;51.228;22.498;2023-03-14T08:04:23;20.60;66.60
23149;DHT22;11743;51.228;22.498;2023-03-14T08:04:44;20.80;65.30
23149;DHT22;11743;51.228;22.498;2023-03-14T08:05:07;20.80;64.50
23149;DHT22;11743;51.228;22.498;2023-03-14T08:05:28;20.90;63.50
23149;DHT22;11743;51.228;22.498;2023-03-14T08:05:50;20.90;63.10
23149;DHT22;11743;51.228;22.498;2023-03-14T08:06:12;20.90;62.60
23149;DHT22;11743;51.228;22.498;2023-03-14T08:06:35;21.00;62.40
23149;DHT22;11743;51.228;22.498;2023-03-14T08:06:57;21.10;62.40
23149;DHT22;11743;51.228;22.498;2023-03-14T08:07:19;21.10;61.60
23149;DHT22;11743;51.228;22.498;2023-03-14T08:07:41;21.10;62.60
23149;DHT22;11743;51.228;22.498;2023-03-14T08:08:04;21.00;61.10
23149;DHT22;11743;51.228;22.498;2023-03-14T08:08:26;21.00;61.10
23149;DHT22;11743;51.228;22.498;2023-03-14T08:08:47;21.00;61.40
23149;DHT22;11743;51.228;22.498;2023-03-14T08:09:09;20.80;61.50
23149;DHT22;11743;51.228;22.498;2023-03-14T08:09:31;20.90;61.00
23149;DHT22;11743;51.228;22.498;2023-03-14T08:09:53;21.00;61.10
23149;DHT22;11743;51.228;22.498;2023-03-14T08:10:14;21.20;61.20
23149;DHT22;11743;51.228;22.498;2023-03-14T08:10:43;21.30;61.00
23149;DHT22;11743;51.228;22.498;2023-03-14T08:11:06;21.50;60.50
23149;DHT22;11743;51.228;22.498;2023-03-14T08:11:30;21.70;60.40
23149;DHT22;11743;51.228;22.498;2023-03-14T08:11:51;21.90;59.70
23149;DHT22;11743;51.228;22.498;2023-03-14T08:12:13;22.00;59.50
23149;DHT22;11743;51.228;22.498;2023-03-14T08:12:35;22.10;59.30
23149;DHT22;11743;51.228;22.498;2023-03-14T08:12:58;22.30;58.80
23149;DHT22;11743;51.228;22.498;2023-03-14T08:13:40;24.60;59.10
23149;DHT22;11743;51.228;22.498;2023-03-14T08:14:02;22.40;57.90
23149;DHT22;11743;51.228;22.498;2023-03-14T08:14:24;22.40;57.60
23149;DHT22;11743;51.228;22.498;2023-03-14T08:14:45;22.40;57.50
23149;DHT22;11743;51.228;22.498;2023-03-14T08:15:08;22.50;57.50
23149;DHT22;11743;51.228;22.498;2023-03-14T08:15:30;22.60;57.20
23149;DHT22;11743;51.228;22.498;2023-03-14T08:15:52;22.40;56.50
23149;DHT22;11743;51.228;22.498;2023-03-14T08:16:14;22.30;56.70
23149;DHT22;11743;51.228;22.498;2023-03-14T08:16:36;22.30;56.70
23149;DHT22;11743;51.228;22.498;2023-03-14T08:16:58;22.30;57.80
23149;DHT22;11743;51.228;22.498;2023-03-14T08:17:19;22.20;56.90
23149;DHT22;11743;51.228;22.498;2023-03-14T08:17:41;22.20;56.90
23149;DHT22;11743;51.228;22.498;2023-03-14T08:18:04;22.30;57.00
23149;DHT22;11743;51.228;22.498;2023-03-14T08:18:26;22.30;57.30
23149;DHT22;11743;51.228;22.498;2023-03-14T08:18:48;22.00;57.20
23149;DHT22;11743;51.228;22.498;2023-03-14T08:19:10;22.10;57.50
23149;DHT22;11743;51.228;22.498;2023-03-14T08:19:31;22.00;56.70
23149;DHT22;11743;51.228;22.498;2023-03-14T08:19:53;21.70;56.80
23149;DHT22;11743;51.228;22.498;2023-03-14T08:20:15;21.60;57.10
23149;DHT22;11743;51.228;22.498;2023-03-14T08:20:37;21.50;57.40
23149;DHT22;11743;51.228;22.498;2023-03-14T08:20:58;21.30;57.50
23149;DHT22;11743;51.228;22.498;2023-03-14T08:21:20;21.10;58.00
23149;DHT22;11743;51.228;22.498;2023-03-14T08:21:42;21.00;58.00
23149;DHT22;11743;51.228;22.498;2023-03-14T08:22:04;20.80;58.20
23149;DHT22;11743;51.228;22.498;2023-03-14T08:22:26;20.60;58.50
23149;DHT22;11743;51.228;22.498;2023-03-14T08:22:48;20.60;58.70
23149;DHT22;11743;51.228;22.498;2023-03-14T08:23:10;20.40;59.10
23149;DHT22;11743;51.228;22.498;2023-03-14T08:23:32;20.20;59.60
23149;DHT22;11743;51.228;22.498;2023-03-14T08:23:53;20.10;59.70
23149;DHT22;11743;51.228;22.498;2023-03-14T08:24:15;19.90;61.00
23149;DHT22;11743;51.228;22.498;2023-03-14T08:24:37;19.70;60.40
23149;DHT22;11743;51.228;22.498;2023-03-14T08:24:59;19.50;61.20
23149;DHT22;11743;51.228;22.498;2023-03-14T08:25:21;19.40;61.70
23149;DHT22;11743;51.228;22.498;2023-03-14T08:25:42;19.30;62.00
23149;DHT22;11743;51.228;22.498;2023-03-14T08:26:05;19.20;62.30
23149;DHT22;11743;51.228;22.498;2023-03-14T08:26:27;19.00;62.70
23149;DHT22;11743;51.228;22.498;2023-03-14T08:26:49;18.80;63.20
23149;DHT22;11743;51.228;22.498;2023-03-14T08:27:11;18.60;63.90
23149;DHT22;11743;51.228;22.498;2023-03-14T08:27:32;18.30;63.80
23149;DHT22;11743;51.228;22.498;2023-03-14T08:27:54;18.10;64.10
23149;DHT22;11743;51.228;22.498;2023-03-14T08:28:17;17.80;64.80
23149;DHT22;11743;51.228;22.498;2023-03-14T08:28:38;17.50;65.50
23149;DHT22;11743;51.228;22.498;2023-03-14T08:29:00;17.30;66.80
23149;DHT22;11743;51.228;22.498;2023-03-14T08:29:22;17.20;67.00
23149;DHT22;11743;51.228;22.498;2023-03-14T08:29:44;17.10;67.70
23149;DHT22;11743;51.228;22.498;2023-03-14T08:30:07;17.00;68.10
23149;DHT22;11743;51.228;22.498;2023-03-14T08:30:29;16.80;68.50
23149;DHT22;11743;51.228;22.498;2023-03-14T08:30:51;16.60;69.60
23149;DHT22;11743;51.228;22.498;2023-03-14T08:31:16;16.20;69.10
23149;DHT22;11743;51.228;22.498;2023-03-14T08:31:38;16.00;69.90
23149;DHT22;11743;51.228;22.498;2023-03-14T08:32:00;15.90;70.60
23149;DHT22;11743;51.228;22.498;2023-03-14T08:32:22;15.90;71.00
23149;DHT22;11743;51.228;22.498;2023-03-14T08:32:45;15.80;71.10
23149;DHT22;11743;51.228;22.498;2023-03-14T08:33:07;15.70;71.30
23149;DHT22;11743;51.228;22.498;2023-03-14T08:33:29;15.50;71.30
23149;DHT22;11743;51.228;22.498;2023-03-14T08:33:52;15.40;71.90
23149;DHT22;11743;51.228;22.498;2023-03-14T08:34:15;15.40;72.40
23149;DHT22;11743;51.228;22.498;2023-03-14T08:34:37;15.30;72.90
23149;DHT22;11743;51.228;22.498;2023-03-14T08:34:59;15.10;73.20
23149;DHT22;11743;51.228;22.498;2023-03-14T08:35:20;15.10;73.50
23149;DHT22;11743;51.228;22.498;2023-03-14T08:35:42;15.00;73.90
23149;DHT22;11743;51.228;22.498;2023-03-14T08:36:04;14.90;74.40
23149;DHT22;11743;51.228;22.498;2023-03-14T08:36:26;14.80;74.80
23149;DHT22;11743;51.228;22.498;2023-03-14T08:36:48;14.80;74.90
23149;DHT22;11743;51.228;22.498;2023-03-14T08:37:09;14.80;75.30
23149;DHT22;11743;51.228;22.498;2023-03-14T08:37:46;14.80;75.70
23149;DHT22;11743;51.228;22.498;2023-03-14T08:38:08;14.80;75.90
23149;DHT22;11743;51.228;22.498;2023-03-14T08:38:31;14.70;75.90
23149;DHT22;11743;51.228;22.498;2023-03-14T08:38:52;14.80;76.30
23149;DHT22;11743;51.228;22.498;2023-03-14T08:39:14;14.80;76.50
23149;DHT22;11743;51.228;22.498;2023-03-14T08:39:36;14.90;76.30
23149;DHT22;11743;51.228;22.498;2023-03-14T08:39:58;15.00;76.40
23149;DHT22;11743;51.228;22.498;2023-03-14T08:40:20;15.00;76.20
23149;DHT22;11743;51.228;22.498;2023-03-14T08:40:42;15.10;76.20
23149;DHT22;11743;51.228;22.498;2023-03-14T08:41:04;15.20;76.10
23149;DHT22;11743;51.228;22.498;2023-03-14T08:41:26;15.20;75.90
23149;DHT22;11743;51.228;22.498;2023-03-14T08:41:49;15.20;76.00
23149;DHT22;11743;51.228;22.498;2023-03-14T08:42:11;15.30;75.90
23149;DHT22;11743;51.228;22.498;2023-03-14T08:42:33;15.30;75.90
23149;DHT22;11743;51.228;22.498;2023-03-14T08:42:55;15.40;75.90
23149;DHT22;11743;51.228;22.498;2023-03-14T08:43:17;15.40;76.10
23149;DHT22;11743;51.228;22.498;2023-03-14T08:43:38;15.50;76.00
23149;DHT22;11743;51.228;22.498;2023-03-14T08:44:00;15.60;75.50
23149;DHT22;11743;51.228;22.498;2023-03-14T08:44:22;15.50;75.40
23149;DHT22;11743;51.228;22.498;2023-03-14T08:44:44;15.50;75.40
23149;DHT22;11743;51.228;22.498;2023-03-14T08:45:08;15.60;75.60
23149;DHT22;11743;51.228;22.498;2023-03-14T08:45:30;15.70;75.80
23149;DHT22;11743;51.228;22.498;2023-03-14T08:45:51;15.60;75.60
23149;DHT22;11743;51.228;22.498;2023-03-14T08:46:13;15.60;75.50